Time;durP1;ratioP1;P1;durP2;ratioP2;P2;SDS_P1;SDS_P2;PMS_P1;PMS_P2;Temp;Humidity;BMP_temperature;BMP_pressure;BME280_temperature;BME280_humidity;BME280_pressure;Samples;Min_cycle;Max_cycle;Signal;HPM_P1;HPM_P2
2023/09/10 00:00:10;;;;;;;121.00;92.13;;;;;;;;;;5053893;28;20836;-82
2023/09/10 00:02:36;;;;;;;116.00;88.13;;;;;;;;;;5038506;28;20463;-81
2023/09/10 00:05:04;;;;;;;109.87;86.53;;;;;;;;;;5030235;28;20467;-82
2023/09/10 00:07:31;;;;;;;112.93;86.50;;;;;;;;;;5043115;28;20491;-81
2023/09/10 00:09:57;;;;;;;113.20;87.60;;;;;;;;;;5041293;28;20543;-81
2023/09/10 00:12:24;;;;;;;125.07;91.03;;;;;;;;;;5039167;28;20481;-81
2023/09/10 00:14:51;;;;;;;105.27;82.70;;;;;;;;;;5021888;28;20999;-81
2023/09/10 00:17:18;;;;;;;118.00;90.90;;;;;;;;;;5049868;28;21001;-81
2023/09/10 00:19:45;;;;;;;123.80;90.37;;;;;;;;;;5043343;28;20497;-81
2023/09/10 00:22:11;;;;;;;120.20;93.17;;;;;;;;;;5034898;28;20494;-81
2023/09/10 00:24:38;;;;;;;125.47;92.63;;;;;;;;;;5040678;28;20473;-81
2023/09/10 00:27:04;;;;;;;125.70;92.80;;;;;;;;;;5044275;28;20479;-81
2023/09/10 00:29:30;;;;;;;125.50;95.73;;;;;;;;;;5030408;28;20467;-81
2023/09/10 00:31:57;;;;;;;133.17;101.43;;;;;;;;;;5056432;28;20560;-81
2023/09/10 00:34:27;;;;;;;147.70;105.47;;;;;;;;;;5035974;28;20501;-81
2023/09/10 00:36:53;;;;;;;135.77;101.90;;;;;;;;;;5041804;28;20502;-81
2023/09/10 00:39:20;;;;;;;129.10;98.47;;;;;;;;;;5041273;28;20459;-81
2023/09/10 00:41:47;;;;;;;142.27;105.93;;;;;;;;;;5055265;28;20913;-81
2023/09/10 00:44:15;;;;;;;139.80;106.67;;;;;;;;;;5043332;28;20455;-81
2023/09/10 00:46:41;;;;;;;135.90;105.00;;;;;;;;;;5041925;28;21012;-81
2023/09/10 00:49:09;;;;;;;154.43;109.00;;;;;;;;;;5049377;28;20472;-81
2023/09/10 00:51:37;;;;;;;126.17;98.83;;;;;;;;;;5045881;28;20476;-81
2023/09/10 00:54:04;;;;;;;129.17;98.30;;;;;;;;;;5052066;28;20824;-81
2023/09/10 00:56:31;;;;;;;142.57;106.60;;;;;;;;;;5060153;28;20488;-81
2023/09/10 00:58:58;;;;;;;144.70;106.57;;;;;;;;;;5025030;28;20531;-81
2023/09/10 01:01:24;;;;;;;133.87;98.80;;;;;;;;;;5036372;28;20478;-81
2023/09/10 01:03:51;;;;;;;145.27;106.53;;;;;;;;;;5030977;28;20475;-82
2023/09/10 01:06:17;;;;;;;125.53;93.90;;;;;;;;;;5045299;28;20459;-81
2023/09/10 01:08:47;;;;;;;121.77;97.27;;;;;;;;;;5043999;28;20579;-81
2023/09/10 01:11:19;;;;;;;133.60;101.17;;;;;;;;;;5058957;28;20463;-81
2023/09/10 01:13:49;;;;;;;133.17;99.10;;;;;;;;;;5048270;28;20480;-81
2023/09/10 01:16:19;;;;;;;135.87;98.37;;;;;;;;;;5035625;28;20493;-82
2023/09/10 01:18:47;;;;;;;116.40;90.57;;;;;;;;;;5037528;28;20477;-81
2023/09/10 01:21:28;;;;;;;107.47;83.20;;;;;;;;;;5032944;28;20555;-81
2023/09/10 01:23:59;;;;;;;98.10;81.17;;;;;;;;;;5045445;28;20490;-82
2023/09/10 01:26:27;;;;;;;109.70;84.70;;;;;;;;;;5041615;28;20480;-81
2023/09/10 01:28:53;;;;;;;118.30;93.00;;;;;;;;;;5045073;28;20468;-81
2023/09/10 01:31:20;;;;;;;123.07;93.07;;;;;;;;;;5039334;28;20476;-81
2023/09/10 01:33:47;;;;;;;130.47;96.70;;;;;;;;;;5036877;28;20516;-81
2023/09/10 01:36:16;;;;;;;139.43;103.63;;;;;;;;;;5008429;28;20461;-82
2023/09/10 01:38:50;;;;;;;148.23;106.97;;;;;;;;;;5034155;28;20478;-81
2023/09/10 01:41:17;;;;;;;207.03;128.93;;;;;;;;;;5043364;28;20483;-81
2023/09/10 01:43:46;;;;;;;216.27;133.23;;;;;;;;;;5040174;28;20474;-81
2023/09/10 01:46:13;;;;;;;208.73;135.00;;;;;;;;;;5055735;28;20483;-82
2023/09/10 01:48:40;;;;;;;210.03;135.57;;;;;;;;;;5032715;28;20989;-81
2023/09/10 01:51:07;;;;;;;228.80;142.07;;;;;;;;;;5054793;28;20479;-82
2023/09/10 01:53:35;;;;;;;209.10;136.70;;;;;;;;;;5053790;28;20465;-82
2023/09/10 01:56:02;;;;;;;209.27;135.27;;;;;;;;;;5048170;28;20465;-80
2023/09/10 01:58:28;;;;;;;201.97;133.30;;;;;;;;;;5036626;28;20468;-81
2023/09/10 02:00:56;;;;;;;191.07;125.03;;;;;;;;;;5034755;28;20467;-81
2023/09/10 02:03:22;;;;;;;212.23;125.70;;;;;;;;;;5036455;28;20465;-80
2023/09/10 02:05:49;;;;;;;205.07;119.37;;;;;;;;;;5047646;28;20458;-81
2023/09/10 02:08:15;;;;;;;294.07;123.10;;;;;;;;;;5034857;28;20472;-81
2023/09/10 02:10:42;;;;;;;200.50;111.07;;;;;;;;;;5036580;28;20474;-82
2023/09/10 02:13:08;;;;;;;163.93;106.53;;;;;;;;;;5032262;28;20518;-82
2023/09/10 02:15:35;;;;;;;178.60;104.80;;;;;;;;;;5015823;28;20477;-82
2023/09/10 02:18:03;;;;;;;165.27;110.80;;;;;;;;;;5055428;28;20475;-81
2023/09/10 02:20:34;;;;;;;153.37;106.63;;;;;;;;;;5049059;28;20459;-81
2023/09/10 02:23:00;;;;;;;149.57;108.27;;;;;;;;;;5027766;28;20999;-81
2023/09/10 02:25:29;;;;;;;148.20;105.67;;;;;;;;;;5045673;28;20467;-81
2023/09/10 02:27:55;;;;;;;143.03;105.10;;;;;;;;;;5032461;28;20477;-81
2023/09/10 02:30:22;;;;;;;140.73;103.60;;;;;;;;;;5037149;28;20512;-81
2023/09/10 02:32:48;;;;;;;112.17;92.10;;;;;;;;;;5042946;28;20847;-81
2023/09/10 02:35:16;;;;;;;128.27;96.43;;;;;;;;;;5047017;28;20855;-81
2023/09/10 02:37:43;;;;;;;118.27;92.50;;;;;;;;;;5043579;28;21080;-81
2023/09/10 02:40:10;;;;;;;115.80;93.57;;;;;;;;;;5039296;28;20480;-81
2023/09/10 02:42:37;;;;;;;114.50;88.90;;;;;;;;;;5038272;28;20483;-82
2023/09/10 02:45:04;;;;;;;112.57;93.17;;;;;;;;;;5040607;28;20467;-81
2023/09/10 02:47:30;;;;;;;107.07;86.30;;;;;;;;;;5040931;28;20471;-82
2023/09/10 02:49:57;;;;;;;104.07;83.73;;;;;;;;;;5044174;28;20457;-81
2023/09/10 02:52:26;;;;;;;101.70;83.00;;;;;;;;;;5044058;28;20465;-81
2023/09/10 02:54:52;;;;;;;102.47;83.90;;;;;;;;;;5031956;28;20462;-81
2023/09/10 02:57:19;;;;;;;97.77;80.33;;;;;;;;;;5046389;28;20492;-81
2023/09/10 02:59:45;;;;;;;95.27;79.17;;;;;;;;;;5041125;28;20479;-81
2023/09/10 03:02:11;;;;;;;103.23;81.30;;;;;;;;;;5047214;28;20465;-81
2023/09/10 03:04:38;;;;;;;96.60;78.23;;;;;;;;;;5036320;28;20470;-81
2023/09/10 03:07:04;;;;;;;88.70;75.07;;;;;;;;;;5030208;28;21144;-81
2023/09/10 03:09:32;;;;;;;89.87;73.33;;;;;;;;;;5048712;28;20459;-81
2023/09/10 03:12:18;;;;;;;78.87;64.90;;;;;;;;;;5044686;28;20469;-81
2023/09/10 03:14:45;;;;;;;86.13;69.23;;;;;;;;;;5037772;28;20458;-81
2023/09/10 03:17:12;;;;;;;81.10;69.47;;;;;;;;;;5048578;28;20491;-81
2023/09/10 03:19:38;;;;;;;69.30;60.27;;;;;;;;;;5051839;28;20460;-81
2023/09/10 03:22:05;;;;;;;64.27;56.47;;;;;;;;;;5031410;28;21004;-81
2023/09/10 03:24:35;;;;;;;63.70;54.67;;;;;;;;;;5036437;28;21011;-81
2023/09/10 03:27:02;;;;;;;58.57;51.77;;;;;;;;;;5047498;28;20473;-82
2023/09/10 03:29:28;;;;;;;60.17;50.40;;;;;;;;;;5049867;28;20459;-81
2023/09/10 03:31:54;;;;;;;60.43;51.33;;;;;;;;;;5052759;28;21163;-81
2023/09/10 03:34:21;;;;;;;57.23;51.00;;;;;;;;;;5034912;28;20485;-81
2023/09/10 03:36:49;;;;;;;60.43;49.60;;;;;;;;;;5042234;28;20484;-81
2023/09/10 03:39:15;;;;;;;62.23;52.83;;;;;;;;;;5052684;28;20463;-81
2023/09/10 03:41:43;;;;;;;61.33;52.30;;;;;;;;;;5057374;28;21090;-81
2023/09/10 03:44:09;;;;;;;59.63;50.97;;;;;;;;;;5052902;28;20476;-81
2023/09/10 03:46:36;;;;;;;65.10;49.83;;;;;;;;;;5057315;28;20468;-81
2023/09/10 03:49:02;;;;;;;56.03;46.67;;;;;;;;;;5057559;28;20477;-82
2023/09/10 03:51:29;;;;;;;53.27;45.60;;;;;;;;;;5060069;28;20479;-81
2023/09/10 03:53:55;;;;;;;54.43;47.17;;;;;;;;;;5036271;28;20533;-81
2023/09/10 03:56:22;;;;;;;66.47;45.93;;;;;;;;;;5040641;28;20472;-81
2023/09/10 03:58:50;;;;;;;49.93;42.40;;;;;;;;;;5048062;28;20499;-81
2023/09/10 04:01:16;;;;;;;49.47;41.60;;;;;;;;;;5045279;28;20472;-82
2023/09/10 04:03:43;;;;;;;54.00;44.60;;;;;;;;;;5024949;28;20474;-81
2023/09/10 04:06:09;;;;;;;52.10;42.27;;;;;;;;;;5062662;28;20813;-81
2023/09/10 04:08:36;;;;;;;45.80;38.67;;;;;;;;;;5059693;28;21199;-81
2023/09/10 04:11:02;;;;;;;53.17;43.07;;;;;;;;;;5046009;28;20890;-81
2023/09/10 04:13:31;;;;;;;53.93;39.93;;;;;;;;;;5046933;28;20982;-80
2023/09/10 04:15:59;;;;;;;49.10;40.27;;;;;;;;;;5050821;28;20458;-81
2023/09/10 04:18:25;;;;;;;54.37;41.87;;;;;;;;;;5051201;28;20853;-82
2023/09/10 04:20:51;;;;;;;49.23;38.20;;;;;;;;;;5028508;28;20475;-81
2023/09/10 04:23:18;;;;;;;44.63;36.87;;;;;;;;;;5045303;28;20474;-81
2023/09/10 04:25:44;;;;;;;44.20;34.37;;;;;;;;;;5038016;28;20468;-81
2023/09/10 04:28:12;;;;;;;38.87;32.87;;;;;;;;;;5050476;28;20448;-81
2023/09/10 04:30:39;;;;;;;57.97;34.37;;;;;;;;;;5051285;28;20817;-81
2023/09/10 04:33:07;;;;;;;40.50;31.73;;;;;;;;;;5044229;28;21048;-81
2023/09/10 04:35:33;;;;;;;43.77;33.33;;;;;;;;;;5044414;28;20469;-81
2023/09/10 04:38:00;;;;;;;46.95;39.13;;;;;;;;;;5032664;28;20438;-81
2023/09/10 04:40:26;;;;;;;44.75;38.30;;;;;;;;;;5037810;28;20409;-81
2023/09/10 04:42:53;;;;;;;38.88;34.63;;;;;;;;;;5045819;28;20440;-81
2023/09/10 04:45:19;;;;;;;40.60;36.30;;;;;;;;;;5041844;28;20471;-81
2023/09/10 04:47:46;;;;;;;34.85;31.05;;;;;;;;;;5035622;28;20417;-81
2023/09/10 04:50:14;;;;;;;32.15;28.95;;;;;;;;;;5039179;28;20753;-81
2023/09/10 04:52:42;;;;;;;31.95;28.75;;;;;;;;;;5054684;28;20438;-81
2023/09/10 04:55:09;;;;;;;30.45;27.25;;;;;;;;;;5050215;28;20423;-81
2023/09/10 04:57:36;;;;;;;28.08;25.20;;;;;;;;;;5051296;28;20919;-80
2023/09/10 05:00:03;;;;;;;28.77;25.77;;;;;;;;;;5058646;28;20487;-81
2023/09/10 05:02:29;;;;;;;26.63;24.03;;;;;;;;;;5051248;28;20789;-81
2023/09/10 05:04:56;;;;;;;27.52;24.63;;;;;;;;;;5045416;28;20911;-81
2023/09/10 05:07:24;;;;;;;26.90;24.20;;;;;;;;;;5036398;28;20799;-80
2023/09/10 05:09:50;;;;;;;26.55;23.75;;;;;;;;;;5032349;28;20427;-81
2023/09/10 05:12:17;;;;;;;26.85;23.95;;;;;;;;;;5031427;28;20426;-81
2023/09/10 05:14:43;;;;;;;26.77;24.10;;;;;;;;;;5043390;28;20782;-81
2023/09/10 05:17:10;;;;;;;27.98;24.95;;;;;;;;;;5039097;28;20438;-81
2023/09/10 05:19:36;;;;;;;29.35;25.35;;;;;;;;;;5050714;28;20498;-81
2023/09/10 05:22:03;;;;;;;30.40;27.30;;;;;;;;;;5043725;28;20429;-81
2023/09/10 05:24:31;;;;;;;33.65;29.83;;;;;;;;;;5041227;28;20929;-81
2023/09/10 05:26:57;;;;;;;34.17;30.50;;;;;;;;;;5035609;28;20405;-81
2023/09/10 05:29:26;;;;;;;34.03;30.42;;;;;;;;;;5032024;28;20407;-81
2023/09/10 05:31:52;;;;;;;35.47;31.27;;;;;;;;;;5040460;28;20473;-81
2023/09/10 05:34:18;;;;;;;33.83;29.90;;;;;;;;;;5038093;28;20396;-80
2023/09/10 05:36:45;;;;;;;33.95;30.20;;;;;;;;;;5027576;28;20936;-81
2023/09/10 05:39:12;;;;;;;37.70;31.45;;;;;;;;;;5050133;28;20519;-81
2023/09/10 05:41:39;;;;;;;35.90;31.77;;;;;;;;;;5035438;28;20416;-81
2023/09/10 05:44:07;;;;;;;39.90;33.97;;;;;;;;;;5037324;28;20841;-81
2023/09/10 05:46:33;;;;;;;39.40;33.42;;;;;;;;;;5032931;28;21004;-81
2023/09/10 05:49:00;;;;;;;39.97;34.50;;;;;;;;;;5042822;28;21055;-81
2023/09/10 05:51:26;;;;;;;37.03;31.02;;;;;;;;;;5042105;28;20937;-80
2023/09/10 05:53:54;;;;;;;40.50;34.45;;;;;;;;;;5045416;28;20410;-81
2023/09/10 05:56:20;;;;;;;38.33;31.83;;;;;;;;;;5023070;28;20908;-81
2023/09/10 05:58:48;;;;;;;41.20;35.53;;;;;;;;;;5037845;28;20441;-81
2023/09/10 06:01:14;;;;;;;40.53;33.47;;;;;;;;;;5045466;28;20420;-81
2023/09/10 06:03:41;;;;;;;40.45;32.28;;;;;;;;;;5046511;28;20877;-81
2023/09/10 06:06:07;;;;;;;47.72;35.28;;;;;;;;;;5051507;28;20423;-81
2023/09/10 06:08:34;;;;;;;43.17;33.47;;;;;;;;;;5047362;28;20414;-81
2023/09/10 06:11:00;;;;;;;38.73;33.80;;;;;;;;;;5025729;28;20419;-81
2023/09/10 06:13:28;;;;;;;42.80;35.85;;;;;;;;;;5043948;28;20431;-81
2023/09/10 06:15:55;;;;;;;45.63;37.30;;;;;;;;;;5018868;28;20438;-81
2023/09/10 06:18:22;;;;;;;46.80;37.25;;;;;;;;;;5040853;28;20913;-81
2023/09/10 06:20:48;;;;;;;44.13;35.38;;;;;;;;;;5044468;28;20421;-81
2023/09/10 06:23:14;;;;;;;43.10;35.65;;;;;;;;;;5038929;28;20425;-81
2023/09/10 06:25:41;;;;;;;48.42;39.45;;;;;;;;;;5036245;28;20938;-81
2023/09/10 06:28:08;;;;;;;44.45;36.70;;;;;;;;;;5041841;28;20405;-81
2023/09/10 06:30:34;;;;;;;48.37;39.63;;;;;;;;;;5044782;28;20407;-81
2023/09/10 06:33:02;;;;;;;45.45;36.83;;;;;;;;;;5048610;28;20416;-81
2023/09/10 06:35:29;;;;;;;43.83;36.25;;;;;;;;;;5039090;28;20793;-81
2023/09/10 06:37:55;;;;;;;44.58;36.97;;;;;;;;;;5030953;28;20440;-81
2023/09/10 06:40:22;;;;;;;47.05;37.70;;;;;;;;;;5046092;28;20490;-81
2023/09/10 06:42:48;;;;;;;42.23;36.10;;;;;;;;;;5026791;28;20471;-81
2023/09/10 06:45:15;;;;;;;44.35;37.25;;;;;;;;;;5027114;28;20471;-81
2023/09/10 06:47:41;;;;;;;45.58;36.90;;;;;;;;;;5043437;28;20783;-81
2023/09/10 06:50:10;;;;;;;44.17;35.95;;;;;;;;;;5044505;28;20850;-81
2023/09/10 06:52:36;;;;;;;44.80;35.92;;;;;;;;;;5052621;28;20408;-81
2023/09/10 06:55:03;;;;;;;46.40;37.85;;;;;;;;;;5053006;28;20411;-81
2023/09/10 06:57:30;;;;;;;47.40;38.90;;;;;;;;;;5051343;28;20437;-81
2023/09/10 06:59:57;;;;;;;46.92;38.05;;;;;;;;;;5037840;28;21111;-81
2023/09/10 07:02:25;;;;;;;46.73;36.80;;;;;;;;;;5040740;28;20452;-81
2023/09/10 07:04:51;;;;;;;40.05;33.03;;;;;;;;;;5037334;28;20425;-82
2023/09/10 07:07:19;;;;;;;49.10;38.85;;;;;;;;;;5030854;28;20441;-81
2023/09/10 07:09:45;;;;;;;43.67;36.10;;;;;;;;;;5042929;28;20406;-80
2023/09/10 07:12:13;;;;;;;42.58;34.88;;;;;;;;;;5029048;28;20495;-81
2023/09/10 07:14:39;;;;;;;46.53;36.72;;;;;;;;;;5039514;28;20403;-81
2023/09/10 07:17:06;;;;;;;51.63;38.85;;;;;;;;;;5033058;28;20413;-81
2023/09/10 07:19:32;;;;;;;48.77;37.57;;;;;;;;;;5052188;28;20828;-81
2023/09/10 07:21:59;;;;;;;48.30;37.10;;;;;;;;;;5052233;28;20440;-81
2023/09/10 07:24:26;;;;;;;47.63;37.00;;;;;;;;;;5027261;28;20413;-81
2023/09/10 07:26:53;;;;;;;45.70;34.90;;;;;;;;;;5029524;28;20437;-81
2023/09/10 07:29:19;;;;;;;44.93;34.70;;;;;;;;;;5048429;28;20406;-81
2023/09/10 07:31:46;;;;;;;48.67;37.00;;;;;;;;;;5047520;28;20910;-81
2023/09/10 07:34:12;;;;;;;46.60;35.40;;;;;;;;;;5045820;28;20397;-81
2023/09/10 07:36:40;;;;;;;43.70;34.33;;;;;;;;;;5040127;28;20934;-81
2023/09/10 07:39:07;;;;;;;45.55;35.67;;;;;;;;;;5036330;28;21107;-80
2023/09/10 07:41:35;;;;;;;43.95;33.30;;;;;;;;;;5032066;28;20423;-81
2023/09/10 07:44:02;;;;;;;45.13;33.88;;;;;;;;;;5050824;28;20422;-81
2023/09/10 07:46:28;;;;;;;48.20;34.95;;;;;;;;;;5045728;28;20429;-81
2023/09/10 07:48:55;;;;;;;49.73;35.50;;;;;;;;;;5045120;28;20440;-81
2023/09/10 07:51:21;;;;;;;44.92;33.75;;;;;;;;;;5041659;28;20434;-81
2023/09/10 07:53:49;;;;;;;47.50;34.33;;;;;;;;;;5041727;28;20425;-81
2023/09/10 07:56:18;;;;;;;49.17;35.40;;;;;;;;;;5031252;28;20445;-81
2023/09/10 07:58:45;;;;;;;48.65;34.83;;;;;;;;;;5045814;28;20437;-80
2023/09/10 08:01:12;;;;;;;46.53;34.72;;;;;;;;;;5043038;28;20396;-81
2023/09/10 08:03:41;;;;;;;48.30;34.57;;;;;;;;;;5051838;28;20420;-81
2023/09/10 08:06:07;;;;;;;54.07;37.40;;;;;;;;;;5055854;28;20798;-81
2023/09/10 08:08:33;;;;;;;54.83;36.75;;;;;;;;;;5046808;28;20415;-81
2023/09/10 08:11:00;;;;;;;53.00;37.15;;;;;;;;;;5051356;28;20416;-81
2023/09/10 08:13:27;;;;;;;55.85;37.83;;;;;;;;;;5038961;28;20418;-81
2023/09/10 08:15:55;;;;;;;59.85;40.30;;;;;;;;;;5050580;28;20805;-81
2023/09/10 08:18:21;;;;;;;64.05;41.45;;;;;;;;;;5039831;28;20459;-81
2023/09/10 08:20:48;;;;;;;60.60;40.08;;;;;;;;;;5041016;28;20473;-81
2023/09/10 08:23:15;;;;;;;58.50;38.80;;;;;;;;;;5038119;28;20521;-81
2023/09/10 08:25:42;;;;;;;58.78;40.95;;;;;;;;;;5039150;28;20867;-81
2023/09/10 08:28:09;;;;;;;58.22;39.85;;;;;;;;;;5057569;28;20419;-81
2023/09/10 08:30:37;;;;;;;56.23;38.03;;;;;;;;;;5056016;28;20925;-81
2023/09/10 08:33:05;;;;;;;61.72;41.22;;;;;;;;;;5058092;28;20400;-80
2023/09/10 08:35:43;;;;;;;66.57;43.13;;;;;;;;;;5036380;28;20416;-80
2023/09/10 08:38:09;;;;;;;63.53;43.80;;;;;;;;;;5044352;28;20981;-81
2023/09/10 08:40:37;;;;;;;61.40;42.13;;;;;;;;;;5059298;28;20412;-81
2023/09/10 08:43:08;;;;;;;63.83;43.80;;;;;;;;;;5052366;28;20413;-81
2023/09/10 08:45:35;;;;;;;64.10;42.05;;;;;;;;;;5023444;28;21005;-81
2023/09/10 08:48:01;;;;;;;68.60;44.05;;;;;;;;;;5018975;28;20426;-81
2023/09/10 08:50:31;;;;;;;63.85;42.60;;;;;;;;;;5048317;28;20769;-81
2023/09/10 08:52:57;;;;;;;67.88;44.88;;;;;;;;;;5051527;28;20432;-80
2023/09/10 08:55:26;;;;;;;67.37;43.87;;;;;;;;;;5030320;28;20513;-80
2023/09/10 08:57:53;;;;;;;65.95;45.25;;;;;;;;;;5028942;28;20403;-80
2023/09/10 09:00:22;;;;;;;69.03;44.53;;;;;;;;;;5023987;28;20407;-80
2023/09/10 09:02:48;;;;;;;68.90;46.75;;;;;;;;;;5040151;28;20423;-81
2023/09/10 09:05:15;;;;;;;60.57;42.80;;;;;;;;;;5036562;28;20421;-80
2023/09/10 09:07:46;;;;;;;63.55;44.45;;;;;;;;;;5032088;28;20421;-80
2023/09/10 09:10:15;;;;;;;58.70;42.80;;;;;;;;;;5026746;28;20404;-80
2023/09/10 09:12:43;;;;;;;57.03;40.50;;;;;;;;;;5043954;28;20417;-80
2023/09/10 09:15:10;;;;;;;58.47;42.97;;;;;;;;;;5056544;28;20413;-81
2023/09/10 09:17:37;;;;;;;59.70;42.92;;;;;;;;;;5042355;28;20421;-80
2023/09/10 09:20:05;;;;;;;55.13;39.85;;;;;;;;;;5042674;28;20907;-80
2023/09/10 09:22:33;;;;;;;52.67;40.25;;;;;;;;;;5044515;28;20457;-80
2023/09/10 09:25:02;;;;;;;51.67;38.40;;;;;;;;;;5037405;28;20413;-80
2023/09/10 09:27:29;;;;;;;53.35;39.90;;;;;;;;;;5039793;28;20415;-81
2023/09/10 09:29:56;;;;;;;54.10;38.58;;;;;;;;;;5042260;28;20411;-80
2023/09/10 09:32:24;;;;;;;50.67;38.30;;;;;;;;;;5040718;28;20464;-81
2023/09/10 09:34:50;;;;;;;53.45;39.80;;;;;;;;;;5031632;28;20447;-81
2023/09/10 09:37:18;;;;;;;53.15;38.90;;;;;;;;;;5039456;28;20431;-81
2023/09/10 09:39:45;;;;;;;52.15;38.70;;;;;;;;;;5045423;28;20467;-81
2023/09/10 09:42:13;;;;;;;47.58;36.78;;;;;;;;;;5058530;28;20405;-81
2023/09/10 09:44:39;;;;;;;47.78;37.20;;;;;;;;;;5047769;28;20858;-81
2023/09/10 09:47:11;;;;;;;47.50;36.40;;;;;;;;;;5046574;28;20409;-81
2023/09/10 09:49:43;;;;;;;47.80;36.03;;;;;;;;;;5046587;28;20408;-80
2023/09/10 09:52:11;;;;;;;40.67;34.08;;;;;;;;;;5027166;28;20417;-81
2023/09/10 09:54:37;;;;;;;41.67;32.95;;;;;;;;;;5041663;28;20413;-80
2023/09/10 09:57:03;;;;;;;42.90;33.88;;;;;;;;;;5054436;28;20419;-81
2023/09/10 09:59:34;;;;;;;44.13;34.70;;;;;;;;;;5038716;28;20416;-80
2023/09/10 10:02:01;;;;;;;39.25;32.08;;;;;;;;;;5030852;28;20444;-80
2023/09/10 10:04:28;;;;;;;41.23;31.63;;;;;;;;;;5045229;28;20780;-80
2023/09/10 10:06:56;;;;;;;41.00;33.13;;;;;;;;;;5043070;28;20906;-80
2023/09/10 10:09:22;;;;;;;41.90;32.30;;;;;;;;;;5023478;28;20408;-81
2023/09/10 10:11:49;;;;;;;40.95;32.90;;;;;;;;;;5028045;28;20799;-82
2023/09/10 10:14:15;;;;;;;38.00;32.00;;;;;;;;;;5030374;28;20413;-81
2023/09/10 10:16:43;;;;;;;37.88;31.73;;;;;;;;;;5038747;28;20899;-81
2023/09/10 10:19:10;;;;;;;36.20;30.30;;;;;;;;;;5040785;28;20406;-80
2023/09/10 10:21:36;;;;;;;35.70;30.50;;;;;;;;;;5045823;28;20414;-81
2023/09/10 10:24:03;;;;;;;33.13;29.40;;;;;;;;;;5010907;28;20922;-81
2023/09/10 10:26:31;;;;;;;36.45;30.77;;;;;;;;;;5047465;28;20442;-81
2023/09/10 10:28:58;;;;;;;34.15;30.42;;;;;;;;;;5040185;28;20436;-81
2023/09/10 10:31:28;;;;;;;32.90;29.30;;;;;;;;;;5040132;28;20431;-81
2023/09/10 10:34:02;;;;;;;32.95;27.63;;;;;;;;;;5046550;28;20409;-81
2023/09/10 10:36:33;;;;;;;31.92;28.20;;;;;;;;;;5047184;28;20437;-80
2023/09/10 10:39:01;;;;;;;35.10;31.02;;;;;;;;;;5036814;28;20422;-80
2023/09/10 10:41:28;;;;;;;34.20;29.00;;;;;;;;;;5036711;28;20962;-81
2023/09/10 10:43:57;;;;;;;32.80;29.30;;;;;;;;;;5031220;28;20403;-81
2023/09/10 10:46:25;;;;;;;31.20;27.80;;;;;;;;;;5015239;28;20801;-80
2023/09/10 10:48:51;;;;;;;33.17;28.23;;;;;;;;;;5043564;28;20411;-81
2023/09/10 10:51:19;;;;;;;30.45;27.20;;;;;;;;;;5045179;28;20417;-80
2023/09/10 10:53:46;;;;;;;35.03;30.23;;;;;;;;;;5036307;28;20430;-80
2023/09/10 10:56:13;;;;;;;32.67;28.73;;;;;;;;;;5044213;28;20417;-80
2023/09/10 10:58:41;;;;;;;33.75;29.75;;;;;;;;;;5039458;28;20423;-81
2023/09/10 11:01:10;;;;;;;33.53;28.88;;;;;;;;;;5041360;28;20465;-81
2023/09/10 11:03:37;;;;;;;30.10;26.52;;;;;;;;;;5045195;28;20417;-81
2023/09/10 11:06:07;;;;;;;30.20;26.90;;;;;;;;;;5044848;28;20767;-80
2023/09/10 11:08:36;;;;;;;33.58;29.85;;;;;;;;;;5044757;28;20538;-81
2023/09/10 11:11:03;;;;;;;31.27;26.07;;;;;;;;;;5041156;28;20417;-81
2023/09/10 11:13:30;;;;;;;29.50;26.30;;;;;;;;;;5042322;28;20512;-80
2023/09/10 11:16:14;;;;;;;29.80;26.60;;;;;;;;;;5036771;28;20930;-81
2023/09/10 11:18:41;;;;;;;26.20;23.33;;;;;;;;;;5054570;28;20422;-81
2023/09/10 11:21:08;;;;;;;26.23;23.42;;;;;;;;;;5043133;28;20507;-81
2023/09/10 11:23:37;;;;;;;27.55;24.45;;;;;;;;;;5045062;28;20400;-80
2023/09/10 11:26:22;;;;;;;29.48;26.27;;;;;;;;;;5039257;28;20416;-81
2023/09/10 11:28:50;;;;;;;26.92;24.10;;;;;;;;;;5041139;28;20885;-81
2023/09/10 11:31:36;;;;;;;26.65;23.88;;;;;;;;;;5051686;28;20415;-81
2023/09/10 11:34:22;;;;;;;27.45;24.05;;;;;;;;;;5041497;28;20422;-80
2023/09/10 11:36:49;;;;;;;24.90;22.40;;;;;;;;;;5044167;28;21073;-81
2023/09/10 11:39:17;;;;;;;26.30;23.45;;;;;;;;;;5039160;28;20401;-80
2023/09/10 11:41:44;;;;;;;21.95;19.70;;;;;;;;;;5050080;28;20415;-81
2023/09/10 11:44:10;;;;;;;22.58;20.20;;;;;;;;;;5045437;28;20413;-80
2023/09/10 11:46:37;;;;;;;21.30;19.20;;;;;;;;;;5053887;28;20416;-81
2023/09/10 11:49:04;;;;;;;22.00;19.70;;;;;;;;;;5034001;28;21214;-81
2023/09/10 11:51:30;;;;;;;23.37;20.97;;;;;;;;;;5034046;28;20891;-80
2023/09/10 11:53:57;;;;;;;21.55;19.25;;;;;;;;;;5047833;28;20436;-81
2023/09/10 11:56:25;;;;;;;19.42;17.40;;;;;;;;;;5008934;28;20431;-81
2023/09/10 11:58:52;;;;;;;16.25;14.65;;;;;;;;;;5026315;28;20459;-80
2023/09/10 12:01:18;;;;;;;18.10;16.30;;;;;;;;;;5044423;28;20450;-81
2023/09/10 12:03:45;;;;;;;17.13;15.33;;;;;;;;;;5044698;28;20418;-81
2023/09/10 12:06:12;;;;;;;21.02;19.02;;;;;;;;;;5023429;28;20495;-80
2023/09/10 12:08:40;;;;;;;14.70;13.10;;;;;;;;;;5047650;28;20454;-81
2023/09/10 12:11:09;;;;;;;15.00;13.40;;;;;;;;;;5031466;28;20388;-81
2023/09/10 12:13:37;;;;;;;15.57;14.07;;;;;;;;;;5043628;28;20433;-81
2023/09/10 12:16:04;;;;;;;17.15;15.45;;;;;;;;;;5028370;28;20425;-81
2023/09/10 12:18:30;;;;;;;14.95;12.52;;;;;;;;;;5040237;28;20431;-81
2023/09/10 12:20:57;;;;;;;14.65;13.15;;;;;;;;;;5049445;28;20427;-80
2023/09/10 12:23:24;;;;;;;18.13;16.23;;;;;;;;;;5053023;28;20413;-81
2023/09/10 12:25:53;;;;;;;16.33;14.63;;;;;;;;;;5043442;28;20411;-81
2023/09/10 12:28:20;;;;;;;15.00;13.30;;;;;;;;;;5027110;28;20420;-81
2023/09/10 12:30:48;;;;;;;13.90;12.60;;;;;;;;;;5053515;28;20437;-81
2023/09/10 12:33:20;;;;;;;15.45;13.90;;;;;;;;;;5050340;28;20461;-81
2023/09/10 12:35:46;;;;;;;15.38;13.02;;;;;;;;;;5047599;28;20424;-81
2023/09/10 12:38:14;;;;;;;17.50;15.50;;;;;;;;;;5046501;28;20415;-80
2023/09/10 12:40:41;;;;;;;15.48;13.98;;;;;;;;;;5047602;28;20417;-80
2023/09/10 12:43:07;;;;;;;16.20;14.60;;;;;;;;;;5051472;28;20411;-81
2023/09/10 12:45:33;;;;;;;15.68;14.18;;;;;;;;;;5042235;28;20423;-81
2023/09/10 12:48:01;;;;;;;17.45;12.80;;;;;;;;;;5038556;28;20404;-81
2023/09/10 12:50:28;;;;;;;16.10;14.50;;;;;;;;;;5038920;28;20415;-80
2023/09/10 12:52:55;;;;;;;16.73;15.13;;;;;;;;;;5036939;28;20414;-81
2023/09/10 12:55:23;;;;;;;19.27;17.15;;;;;;;;;;5059950;28;20410;-80
2023/09/10 12:57:52;;;;;;;17.17;15.48;;;;;;;;;;5031183;28;20912;-81
2023/09/10 13:00:18;;;;;;;17.00;15.20;;;;;;;;;;5044689;28;20437;-80
2023/09/10 13:02:47;;;;;;;17.07;15.23;;;;;;;;;;5036660;28;20429;-80
2023/09/10 13:05:15;;;;;;;17.40;15.60;;;;;;;;;;5038030;28;20439;-81
2023/09/10 13:07:41;;;;;;;17.05;14.77;;;;;;;;;;5024913;28;20427;-80
2023/09/10 13:10:10;;;;;;;17.73;15.82;;;;;;;;;;5046644;28;20413;-81
2023/09/10 13:12:36;;;;;;;18.90;16.23;;;;;;;;;;5035442;28;20937;-80
2023/09/10 13:15:03;;;;;;;18.77;16.88;;;;;;;;;;4997687;28;20409;-81
2023/09/10 13:17:30;;;;;;;21.85;18.40;;;;;;;;;;5030419;28;20784;-81
2023/09/10 13:19:56;;;;;;;19.30;17.30;;;;;;;;;;5034065;28;20491;-81
2023/09/10 13:22:24;;;;;;;22.08;19.33;;;;;;;;;;5048205;28;20930;-80
2023/09/10 13:24:50;;;;;;;24.35;20.27;;;;;;;;;;5047694;28;20412;-81
2023/09/10 13:27:17;;;;;;;21.58;17.85;;;;;;;;;;5033616;28;20424;-80
2023/09/10 13:29:43;;;;;;;21.33;19.23;;;;;;;;;;5036116;28;20412;-80
2023/09/10 13:32:10;;;;;;;20.05;18.05;;;;;;;;;;5040194;28;20415;-81
2023/09/10 13:34:37;;;;;;;20.55;18.23;;;;;;;;;;5045470;28;20416;-80
2023/09/10 13:37:03;;;;;;;23.38;20.35;;;;;;;;;;5045621;28;20414;-81
2023/09/10 13:39:32;;;;;;;25.23;20.65;;;;;;;;;;5046468;28;20410;-81
2023/09/10 13:41:58;;;;;;;23.70;20.80;;;;;;;;;;5044599;28;20434;-80
2023/09/10 13:44:26;;;;;;;21.88;19.58;;;;;;;;;;5060745;28;20401;-81
2023/09/10 13:46:53;;;;;;;23.08;20.60;;;;;;;;;;5061777;28;20407;-80
2023/09/10 13:49:19;;;;;;;23.05;20.30;;;;;;;;;;5055571;28;20403;-81
2023/09/10 13:51:45;;;;;;;22.80;19.53;;;;;;;;;;5039704;28;20435;-81
2023/09/10 13:54:12;;;;;;;22.07;17.73;;;;;;;;;;5031563;28;21062;-81
2023/09/10 13:56:40;;;;;;;20.63;18.57;;;;;;;;;;5045374;28;20512;-80
2023/09/10 13:59:07;;;;;;;21.33;19.03;;;;;;;;;;5049502;28;20483;-81
2023/09/10 14:01:33;;;;;;;23.53;19.00;;;;;;;;;;5022696;28;20494;-81
2023/09/10 14:04:00;;;;;;;25.63;20.37;;;;;;;;;;5045247;28;20872;-80
2023/09/10 14:06:27;;;;;;;24.70;21.73;;;;;;;;;;5050793;28;20955;-80
2023/09/10 14:08:54;;;;;;;33.30;24.50;;;;;;;;;;5045714;28;20463;-81
2023/09/10 14:11:20;;;;;;;31.13;22.10;;;;;;;;;;5038377;28;20471;-81
2023/09/10 14:13:48;;;;;;;27.53;23.10;;;;;;;;;;5057276;28;20493;-81